createdAt,value
2023-09-02T00:01:35.237Z,96047.50
2023-09-02T00:04:22.618Z,96043.75
2023-09-02T00:07:10.540Z,96051.03
2023-09-02T00:09:57.702Z,96042.78
2023-09-02T00:12:45.097Z,96048.84
2023-09-02T00:15:33.188Z,96044.06
2023-09-02T00:18:21.130Z,96043.25
2023-09-02T00:21:10.119Z,96031.75
2023-09-02T00:24:04.176Z,96025.63
2023-09-02T00:26:51.668Z,96010.13
2023-09-02T00:29:43.265Z,96012.22
2023-09-02T00:32:30.577Z,96028.31
2023-09-02T00:35:19.491Z,96023.78
2023-09-02T00:38:06.623Z,96030.72
2023-09-02T00:41:01.085Z,96017.84
2023-09-02T00:44:00.426Z,96002.53
2023-09-02T00:53:34.308Z,96012.16
2023-09-02T00:59:25.106Z,96004.69
2023-09-02T01:02:11.175Z,96004.97
2023-09-02T01:04:59.164Z,96002.28
2023-09-02T01:07:45.230Z,96012.69
2023-09-02T01:10:32.927Z,96014.78
2023-09-02T01:13:18.827Z,96009.19
2023-09-02T01:16:04.468Z,95999.28
2023-09-02T01:18:49.778Z,95993.09
2023-09-02T01:21:49.833Z,95988.56
2023-09-02T01:24:53.633Z,95985.31
2023-09-02T01:28:08.565Z,95982.09
2023-09-02T01:30:55.372Z,95988.50
2023-09-02T01:33:42.287Z,95992.78
2023-09-02T01:36:29.322Z,95999.22
2023-09-02T01:39:16.736Z,95994.91
2023-09-02T01:42:02.518Z,96004.59
2023-09-02T01:44:48.316Z,95994.44
2023-09-02T01:47:33.922Z,95986.41
2023-09-02T01:50:22.762Z,95994.44
2023-09-02T01:53:09.991Z,95993.94
2023-09-02T01:55:56.249Z,95999.78
2023-09-02T01:58:41.328Z,96000.56
2023-09-02T02:01:27.062Z,96006.75
2023-09-02T02:04:24.441Z,96008.38
2023-09-02T02:07:15.062Z,96005.44
2023-09-02T02:10:04.443Z,96006.25
2023-09-02T02:12:50.144Z,95996.59
2023-09-02T02:15:35.627Z,95999.28
2023-09-02T02:18:20.845Z,95997.97
2023-09-02T02:21:06.766Z,95999.91
2023-09-02T02:23:52.390Z,95999.34
2023-09-02T02:26:37.764Z,96004.44
2023-09-02T02:29:23.313Z,96021.50
2023-09-02T02:32:08.660Z,96027.38
2023-09-02T02:34:55.288Z,96024.44
2023-09-02T02:37:40.320Z,96025.00
2023-09-02T02:40:25.598Z,96033.59
2023-09-02T02:43:11.101Z,96039.53
2023-09-02T02:45:56.752Z,96036.59
2023-09-02T02:48:41.851Z,96042.78
2023-09-02T02:51:27.172Z,96024.56
2023-09-02T02:54:12.772Z,96028.06
2023-09-02T02:56:58.142Z,96027.50
2023-09-02T02:59:43.665Z,96018.66
2023-09-02T03:02:29.233Z,96023.50
2023-09-02T03:05:14.466Z,96021.66
2023-09-02T03:07:59.831Z,96011.16
2023-09-02T03:10:45.288Z,96011.72
2023-09-02T03:13:32.017Z,95999.41
2023-09-02T03:16:17.238Z,96000.22
2023-09-02T03:19:02.623Z,96003.63
2023-09-02T03:21:49.046Z,96016.72
2023-09-02T03:24:34.457Z,96013.78
2023-09-02T03:27:19.974Z,96003.63
2023-09-02T03:30:06.544Z,96014.34
2023-09-02T03:32:51.616Z,96007.38
2023-09-02T03:35:39.990Z,95997.72
2023-09-02T03:38:25.005Z,95997.72
2023-09-02T03:41:13.968Z,96006.25
2023-09-02T03:44:00.294Z,96006.25
2023-09-02T03:46:45.589Z,96009.19
2023-09-02T03:49:30.863Z,96009.19
2023-09-02T03:52:17.207Z,96003.81
2023-09-02T03:55:02.671Z,96005.69
2023-09-02T03:57:47.821Z,96006.44
2023-09-02T04:00:33.482Z,96000.78
2023-09-02T04:03:21.579Z,96002.09
2023-09-02T04:06:06.877Z,96007.66
2023-09-02T04:08:52.749Z,96008.75
2023-09-02T04:11:38.093Z,96008.75
2023-09-02T04:14:23.402Z,96014.34
2023-09-02T04:17:08.974Z,96020.53
2023-09-02T04:19:56.199Z,96023.69
2023-09-02T04:22:41.221Z,96033.28
2023-09-02T04:25:26.481Z,96022.25
2023-09-02T04:28:11.919Z,96019.81
2023-09-02T04:30:58.272Z,96031.59
2023-09-02T04:33:43.604Z,96032.66
2023-09-02T04:36:30.299Z,96020.31
2023-09-02T04:39:15.734Z,96029.41
2023-09-02T04:42:01.169Z,96023.72
2023-09-02T04:44:46.559Z,96032.00
2023-09-02T04:47:32.246Z,96035.25
2023-09-02T04:50:17.360Z,96033.16
2023-09-02T04:53:03.546Z,96040.63
2023-09-02T04:55:49.495Z,96033.56
2023-09-02T04:58:34.668Z,96027.66
2023-09-02T05:01:20.120Z,96028.44
2023-09-02T05:04:05.556Z,96029.25
2023-09-02T05:06:50.985Z,96039.66
2023-09-02T05:09:36.462Z,96046.63
2023-09-02T05:12:21.977Z,96049.28
2023-09-02T05:15:08.064Z,96045.31
2023-09-02T05:17:53.709Z,96043.72
2023-09-02T05:20:41.463Z,96043.06
2023-09-02T05:23:27.194Z,96042.56
2023-09-02T05:26:12.899Z,96045.50
2023-09-02T05:28:57.868Z,96049.47
2023-09-02T05:31:43.342Z,96051.09
2023-09-02T05:34:28.532Z,96052.72
2023-09-02T05:37:13.810Z,96058.16
2023-09-02T05:39:59.330Z,96063.81
2023-09-02T05:42:44.652Z,96054.00
2023-09-02T05:45:29.998Z,96057.72
2023-09-02T05:48:15.505Z,96057.66
2023-09-02T05:51:00.779Z,96058.03
2023-09-02T05:53:47.712Z,96052.44
2023-09-02T05:56:34.931Z,96054.06
2023-09-02T05:59:20.294Z,96050.31
2023-09-02T06:02:05.466Z,96052.03
2023-09-02T06:04:50.717Z,96062.84
2023-09-02T06:07:35.757Z,96067.97
2023-09-02T06:10:21.193Z,96062.16
2023-09-02T06:13:06.321Z,96068.72
2023-09-02T06:15:51.864Z,96062.94
2023-09-02T06:18:37.373Z,96058.72
2023-09-02T06:21:22.620Z,96057.16
2023-09-02T06:24:08.522Z,96051.78
2023-09-02T06:26:53.795Z,96049.63
2023-09-02T06:29:38.933Z,96053.38
2023-09-02T06:32:25.666Z,96059.00
2023-09-02T06:35:16.159Z,96060.13
2023-09-02T06:38:01.783Z,96073.78
2023-09-02T06:40:47.437Z,96071.75
2023-09-02T06:43:32.832Z,96072.38
2023-09-02T06:46:20.871Z,96074.84
2023-09-02T06:49:06.756Z,96073.53
2023-09-02T06:51:52.099Z,96076.28
2023-09-02T06:54:37.456Z,96078.78
2023-09-02T06:57:22.658Z,96079.00
2023-09-02T07:00:08.673Z,96080.66
2023-09-02T07:02:54.006Z,96086.66
2023-09-02T07:05:39.405Z,96093.63
2023-09-02T07:08:24.672Z,96094.25
2023-09-02T07:11:11.082Z,96099.72
2023-09-02T07:13:58.203Z,96097.94
2023-09-02T07:16:43.546Z,96095.59
2023-09-02T07:19:29.114Z,96091.34
2023-09-02T07:22:14.421Z,96095.72
2023-09-02T07:24:59.923Z,96092.00
2023-09-02T07:27:45.294Z,96103.91
2023-09-02T07:30:30.758Z,96104.50
2023-09-02T07:33:16.843Z,96097.03
2023-09-02T07:36:13.527Z,96093.81
2023-09-02T07:38:58.965Z,96098.72
2023-09-02T07:41:44.366Z,96097.19
2023-09-02T07:44:29.737Z,96102.63
2023-09-02T07:47:15.022Z,96103.72
2023-09-02T07:50:00.382Z,96096.28
2023-09-02T07:52:45.778Z,96099.03
2023-09-02T07:55:31.069Z,96103.66
2023-09-02T07:58:16.413Z,96101.28
2023-09-02T08:01:01.891Z,96109.97
2023-09-02T08:03:47.110Z,96111.66
2023-09-02T08:06:32.492Z,96106.88
2023-09-02T08:09:20.508Z,96115.00
2023-09-02T08:12:06.369Z,96103.50
2023-09-02T08:14:51.384Z,96111.38
2023-09-02T08:17:38.583Z,96111.16
2023-09-02T08:20:24.386Z,96109.59
2023-09-02T08:23:09.443Z,96115.53
2023-09-02T08:25:54.768Z,96118.81
2023-09-02T08:28:40.866Z,96110.53
2023-09-02T08:31:25.976Z,96111.59
2023-09-02T08:34:11.411Z,96115.69
2023-09-02T08:36:56.744Z,96105.22
2023-09-02T08:39:42.137Z,96114.91
2023-09-02T08:42:27.870Z,96120.56
2023-09-02T08:45:14.718Z,96120.28
2023-09-02T08:48:06.444Z,96111.16
2023-09-02T08:50:53.623Z,96115.69
2023-09-02T08:53:39.978Z,96122.44
2023-09-02T08:56:25.403Z,96125.44
2023-09-02T08:59:11.394Z,96126.22
2023-09-02T09:01:57.812Z,96121.09
2023-09-02T09:04:43.437Z,96125.09
2023-09-02T09:07:28.990Z,96112.66
2023-09-02T09:10:17.158Z,96122.59
2023-09-02T09:13:05.619Z,96127.69
2023-09-02T09:15:52.425Z,96121.75
2023-09-02T09:18:37.680Z,96126.56
2023-09-02T09:21:22.974Z,96124.97
2023-09-02T09:24:12.616Z,96126.53
2023-09-02T09:27:00.542Z,96127.31
2023-09-02T09:29:46.785Z,96131.34
2023-09-02T09:32:33.068Z,96130.78
2023-09-02T09:35:24.570Z,96133.16
2023-09-02T09:38:09.993Z,96124.19
2023-09-02T09:40:55.460Z,96123.88
2023-09-02T09:43:41.152Z,96127.34
2023-09-02T09:46:26.481Z,96130.03
2023-09-02T09:49:31.683Z,96131.34
2023-09-02T09:52:18.303Z,96136.19
2023-09-02T09:55:03.862Z,96128.06
2023-09-02T09:57:54.531Z,96132.09
2023-09-02T10:00:40.139Z,96133.16
2023-09-02T10:03:32.206Z,96139.06
2023-09-02T10:06:17.955Z,96140.69
2023-09-02T10:09:03.134Z,96143.91
2023-09-02T10:11:48.559Z,96129.59
2023-09-02T10:14:34.086Z,96139.00
2023-09-02T10:17:19.718Z,96139.25
2023-09-02T10:20:06.875Z,96138.97
2023-09-02T10:22:53.245Z,96126.50
2023-09-02T10:25:56.760Z,96133.38
2023-09-02T10:28:43.504Z,96146.50
2023-09-02T10:31:35.938Z,96138.63
2023-09-02T10:34:50.884Z,96126.16
2023-09-02T10:37:45.358Z,96144.22
2023-09-02T10:40:40.307Z,96148.56
2023-09-02T10:43:26.011Z,96148.81
2023-09-02T10:46:12.591Z,96144.44
2023-09-02T10:49:00.042Z,96145.28
2023-09-02T10:51:45.691Z,96146.38
2023-09-02T10:55:09.798Z,96147.53
2023-09-02T10:57:57.310Z,96140.88
2023-09-02T11:00:48.105Z,96138.78
2023-09-02T11:03:50.582Z,96144.31
2023-09-02T11:06:36.219Z,96148.91
2023-09-02T11:09:49.854Z,96146.13
2023-09-02T11:12:35.960Z,96151.00
2023-09-02T11:15:21.736Z,96151.50
2023-09-02T11:18:30.432Z,96152.44
2023-09-02T11:21:44.876Z,96154.84
2023-09-02T11:24:31.393Z,96149.63
2023-09-02T11:27:16.740Z,96144.06
2023-09-02T11:30:12.312Z,96154.78
2023-09-02T11:32:58.588Z,96159.66
2023-09-02T11:35:44.433Z,96170.22
2023-09-02T11:38:29.695Z,96178.63
2023-09-02T11:41:26.223Z,96178.41
2023-09-02T11:44:13.349Z,96178.13
2023-09-02T11:46:59.130Z,96187.94
2023-09-02T11:49:45.420Z,96181.13
2023-09-02T11:52:30.541Z,96174.31
2023-09-02T11:55:17.388Z,96172.28
2023-09-02T11:58:11.645Z,96169.66
2023-09-02T12:00:56.884Z,96182.72
2023-09-02T12:03:42.363Z,96177.00
2023-09-02T12:06:31.348Z,96168.78
2023-09-02T12:09:17.864Z,96173.94
2023-09-02T12:12:04.056Z,96177.59
2023-09-02T12:14:49.303Z,96180.81
2023-09-02T12:17:34.871Z,96183.09
2023-09-02T12:20:20.336Z,96173.63
2023-09-02T12:23:06.634Z,96173.69
2023-09-02T12:26:11.029Z,96178.09
2023-09-02T12:29:03.470Z,96174.81
2023-09-02T12:31:55.997Z,96186.72
2023-09-02T12:34:41.494Z,96190.22
2023-09-02T12:37:26.682Z,96192.63
2023-09-02T12:40:16.196Z,96195.84
2023-09-02T12:43:02.785Z,96215.03
2023-09-02T12:45:48.216Z,96206.69
2023-09-02T12:48:34.038Z,96201.41
2023-09-02T12:51:28.780Z,96199.66
2023-09-02T12:54:15.461Z,96205.41
2023-09-02T12:57:00.858Z,96206.00
2023-09-02T12:59:46.239Z,96207.75
2023-09-02T13:02:32.791Z,96216.94
2023-09-02T13:05:18.201Z,96215.59
2023-09-02T13:08:03.833Z,96212.63
2023-09-02T13:10:49.025Z,96202.31
2023-09-02T13:13:34.427Z,96212.78
2023-09-02T13:16:20.245Z,96205.44
2023-09-02T13:19:05.858Z,96205.41
2023-09-02T13:21:51.804Z,96211.34
2023-09-02T13:24:47.999Z,96210.78
2023-09-02T13:27:34.169Z,96200.78
2023-09-02T13:30:24.165Z,96199.94
2023-09-02T13:33:09.645Z,96205.34
2023-09-02T13:35:58.158Z,96204.78
2023-09-02T13:38:43.632Z,96211.84
2023-09-02T13:41:29.381Z,96211.00
2023-09-02T13:44:14.588Z,96215.91
2023-09-02T13:47:07.959Z,96225.31
2023-09-02T13:49:57.460Z,96219.09
2023-09-02T13:52:44.913Z,96215.06
2023-09-02T13:55:49.306Z,96221.75
2023-09-02T13:58:36.422Z,96221.16
2023-09-02T14:01:21.900Z,96226.63
2023-09-02T14:04:07.485Z,96230.25
2023-09-02T14:06:52.755Z,96222.78
2023-09-02T14:09:43.994Z,96225.78
2023-09-02T14:12:30.647Z,96215.78
2023-09-02T14:15:16.597Z,96216.88
2023-09-02T14:18:01.716Z,96216.56
2023-09-02T14:20:47.063Z,96223.03
2023-09-02T14:23:35.256Z,96235.53
2023-09-02T14:26:20.495Z,96228.59
2023-09-02T14:29:06.049Z,96237.50
2023-09-02T14:31:51.369Z,96233.75
2023-09-02T14:34:37.951Z,96236.22
2023-09-02T14:37:23.365Z,96233.81
2023-09-02T14:40:09.062Z,96231.13
2023-09-02T14:42:54.211Z,96236.47
2023-09-02T14:45:39.645Z,96238.31
2023-09-02T14:48:26.158Z,96242.69
2023-09-02T14:51:12.090Z,96254.88
2023-09-02T14:53:57.471Z,96256.50
2023-09-02T14:56:45.221Z,96254.94
2023-09-02T14:59:31.001Z,96250.63
2023-09-02T15:02:41.529Z,96254.97
2023-09-02T15:05:28.383Z,96246.91
2023-09-02T15:08:14.205Z,96244.72
2023-09-02T15:11:01.474Z,96247.97
2023-09-02T15:13:46.741Z,96244.47
2023-09-02T15:16:36.285Z,96244.75
2023-09-02T15:19:23.044Z,96245.81
2023-09-02T15:22:08.118Z,96247.16
2023-09-02T15:24:53.695Z,96257.41
2023-09-02T15:27:39.811Z,96256.28
2023-09-02T15:30:29.974Z,96261.44
2023-09-02T15:33:15.483Z,96265.50
2023-09-02T15:36:05.127Z,96269.81
2023-09-02T15:38:50.630Z,96269.56
2023-09-02T15:41:38.026Z,96273.09
2023-09-02T15:44:23.464Z,96268.50
2023-09-02T15:47:11.600Z,96273.94
2023-09-02T15:49:56.914Z,96265.31
2023-09-02T15:52:42.436Z,96264.22
2023-09-02T15:55:27.740Z,96259.63
2023-09-02T15:58:13.137Z,96275.84
2023-09-02T16:00:58.631Z,96272.88
2023-09-02T16:03:44.216Z,96275.56
2023-09-02T16:06:29.751Z,96277.16
2023-09-02T16:09:15.111Z,96278.00
2023-09-02T16:12:00.598Z,96282.56
2023-09-02T16:14:45.905Z,96292.81
2023-09-02T16:17:31.770Z,96295.53
2023-09-02T16:20:16.884Z,96286.63
2023-09-02T16:23:02.260Z,96283.94
2023-09-02T16:25:47.596Z,96283.94
2023-09-02T16:28:32.944Z,96292.84
2023-09-02T16:31:18.399Z,96299.31
2023-09-02T16:34:05.090Z,96302.28
2023-09-02T16:36:51.907Z,96303.63
2023-09-02T16:39:37.370Z,96307.41
2023-09-02T16:42:33.978Z,96303.09
2023-09-02T16:45:19.878Z,96308.78
2023-09-02T16:48:10.155Z,96304.44
2023-09-02T16:50:55.656Z,96307.69
2023-09-02T16:53:41.566Z,96311.19
2023-09-02T16:56:26.946Z,96308.50
2023-09-02T16:59:13.038Z,96311.97
2023-09-02T17:01:59.731Z,96321.44
2023-09-02T17:04:45.242Z,96312.53
2023-09-02T17:07:30.594Z,96324.41
2023-09-02T17:10:29.811Z,96318.75
2023-09-02T17:13:15.552Z,96311.72
2023-09-02T17:16:00.982Z,96315.50
2023-09-02T17:18:47.154Z,96310.13
2023-09-02T17:21:33.000Z,96310.13
2023-09-02T17:24:18.623Z,96312.00
2023-09-02T17:27:16.315Z,96304.75
2023-09-02T17:30:06.914Z,96308.22
2023-09-02T17:32:52.866Z,96313.88
2023-09-02T17:35:38.257Z,96325.75
2023-09-02T17:38:23.508Z,96323.06
2023-09-02T17:41:09.042Z,96326.81
2023-09-02T17:43:54.185Z,96329.44
2023-09-02T17:46:39.311Z,96331.03
2023-09-02T17:49:24.357Z,96328.88
2023-09-02T17:52:09.676Z,96335.31
2023-09-02T17:54:54.813Z,96330.97
2023-09-02T17:57:40.289Z,96335.00
2023-09-02T18:00:27.087Z,96345.47
2023-09-02T18:03:12.527Z,96334.69
2023-09-02T18:05:58.098Z,96350.28
2023-09-02T18:11:33.342Z,96359.88
2023-09-02T18:14:18.819Z,96349.03
2023-09-02T18:17:04.290Z,96350.31
2023-09-02T18:19:50.334Z,96354.31
2023-09-02T18:22:35.567Z,96359.38
2023-09-02T18:25:21.069Z,96358.53
2023-09-02T18:28:06.654Z,96358.50
2023-09-02T18:30:53.604Z,96366.53
2023-09-02T18:33:40.779Z,96369.69
2023-09-02T18:36:26.416Z,96366.41
2023-09-02T18:39:11.854Z,96373.06
2023-09-02T18:41:56.873Z,96382.47
2023-09-02T18:44:43.194Z,96382.22
2023-09-02T18:47:28.538Z,96380.28
2023-09-02T18:50:13.842Z,96385.63
2023-09-02T18:52:59.204Z,96390.13
2023-09-02T18:55:44.498Z,96393.56
2023-09-02T18:58:29.666Z,96396.22
2023-09-02T19:01:15.653Z,96400.72
2023-09-02T19:04:01.952Z,96401.72
2023-09-02T19:06:47.320Z,96402.16
2023-09-02T19:09:32.979Z,96402.38
2023-09-02T19:12:18.073Z,96407.69
2023-09-02T19:15:03.811Z,96408.47
2023-09-02T19:17:48.925Z,96409.75
2023-09-02T19:20:34.376Z,96411.88
2023-09-02T19:23:20.218Z,96413.22
2023-09-02T19:26:05.803Z,96413.41
2023-09-02T19:28:51.129Z,96419.25
2023-09-02T19:31:36.618Z,96420.59
2023-09-02T19:34:24.020Z,96413.03
2023-09-02T19:37:09.388Z,96416.50
2023-09-02T19:39:55.066Z,96412.72
2023-09-02T19:42:41.380Z,96411.31
2023-09-02T19:45:26.689Z,96412.66
2023-09-02T19:48:12.182Z,96413.94
2023-09-02T19:50:57.593Z,96410.94
2023-09-02T19:53:42.978Z,96403.72
2023-09-02T19:56:28.255Z,96404.75
2023-09-02T19:59:13.944Z,96399.31
2023-09-02T20:02:00.952Z,96404.38
2023-09-02T20:04:47.036Z,96397.88
2023-09-02T20:07:32.528Z,96396.72
2023-09-02T20:10:17.984Z,96401.53
2023-09-02T20:13:03.643Z,96397.47
2023-09-02T20:15:56.594Z,96398.78
2023-09-02T20:18:43.123Z,96401.13
2023-09-02T20:21:29.539Z,96391.72
2023-09-02T20:24:14.688Z,96392.22
2023-09-02T20:27:00.692Z,96400.75
2023-09-02T20:29:46.123Z,96406.88
2023-09-02T20:32:31.853Z,96403.63
2023-09-02T20:35:16.912Z,96400.34
2023-09-02T20:38:05.099Z,96401.69
2023-09-02T20:40:51.677Z,96413.47
2023-09-02T20:43:36.976Z,96414.78
2023-09-02T20:46:22.387Z,96408.84
2023-09-02T20:49:07.973Z,96403.16
2023-09-02T20:51:53.664Z,96412.75
2023-09-02T20:54:38.859Z,96403.06
2023-09-02T20:57:24.453Z,96400.97
2023-09-02T21:00:10.068Z,96398.28
2023-09-02T21:02:58.671Z,96402.28
2023-09-02T21:05:44.400Z,96407.88
2023-09-02T21:08:31.540Z,96399.28
2023-09-02T21:11:17.780Z,96408.09
2023-09-02T21:14:03.118Z,96415.38
2023-09-02T21:16:48.425Z,96417.47
2023-09-02T21:19:37.727Z,96407.25
2023-09-02T21:22:23.184Z,96409.09
2023-09-02T21:25:11.302Z,96407.72
2023-09-02T21:27:56.660Z,96411.94
2023-09-02T21:30:42.223Z,96412.41
2023-09-02T21:33:27.415Z,96415.59
2023-09-02T21:36:17.513Z,96408.63
2023-09-02T21:39:02.730Z,96412.34
2023-09-02T21:41:48.110Z,96408.53
2023-09-02T21:44:33.764Z,96413.56
2023-09-02T21:47:19.092Z,96414.84
2023-09-02T21:50:04.349Z,96415.59
2023-09-02T21:52:49.926Z,96423.31
2023-09-02T21:55:35.199Z,96415.97
2023-09-02T21:58:21.077Z,96406.53
2023-09-02T22:01:09.407Z,96408.63
2023-09-02T22:03:54.989Z,96405.88
2023-09-02T22:06:40.349Z,96410.91
2023-09-02T22:09:25.843Z,96407.88
2023-09-02T22:12:11.289Z,96403.84
2023-09-02T22:14:56.788Z,96396.28
2023-09-02T22:17:42.110Z,96402.44
2023-09-02T22:20:27.602Z,96408.84
2023-09-02T22:23:15.529Z,96404.56
2023-09-02T22:26:04.066Z,96404.56
2023-09-02T22:28:49.530Z,96408.78
2023-09-02T22:31:34.816Z,96411.44
2023-09-02T22:34:20.098Z,96415.19
2023-09-02T22:37:05.646Z,96416.22
2023-09-02T22:39:51.472Z,96410.53
2023-09-02T22:42:37.011Z,96415.41
2023-09-02T22:45:23.273Z,96418.91
2023-09-02T22:48:09.283Z,96422.06
2023-09-02T22:50:54.804Z,96418.00
2023-09-02T22:53:41.254Z,96419.31
2023-09-02T22:56:26.613Z,96411.50
2023-09-02T22:59:12.013Z,96409.41
2023-09-02T23:01:57.504Z,96407.28
2023-09-02T23:04:42.741Z,96406.50
2023-09-02T23:07:27.997Z,96408.59
2023-09-02T23:10:13.648Z,96406.97
2023-09-02T23:12:58.984Z,96401.03
2023-09-02T23:15:44.279Z,96406.41
2023-09-02T23:18:29.851Z,96402.66
2023-09-02T23:21:19.316Z,96402.66
2023-09-02T23:24:04.631Z,96405.09
2023-09-02T23:26:49.940Z,96393.00
2023-09-02T23:29:35.582Z,96403.13
2023-09-02T23:32:25.921Z,96398.81
2023-09-02T23:35:11.312Z,96388.09
2023-09-02T23:37:56.223Z,96392.91
2023-09-02T23:40:41.518Z,96392.66
2023-09-02T23:43:26.938Z,96384.88
2023-09-02T23:46:20.188Z,96381.13
2023-09-02T23:49:05.405Z,96373.09
2023-09-02T23:51:50.952Z,96371.94
2023-09-02T23:54:37.204Z,96373.81
2023-09-02T23:57:22.671Z,96382.09
